sensor_id;sensor_type;location;lat;lon;timestamp;temperature;humidity
75985;DHT22;65033;44.660;37.758;2023-11-19T00:00:53;12.61;64.40
75985;DHT22;65033;44.660;37.758;2023-11-19T00:01:57;12.63;64.37
75985;DHT22;65033;44.660;37.758;2023-11-19T00:03:01;12.66;63.51
75985;DHT22;65033;44.660;37.758;2023-11-19T00:04:04;12.72;63.10
75985;DHT22;65033;44.660;37.758;2023-11-19T00:05:08;12.77;63.63
75985;DHT22;65033;44.660;37.758;2023-11-19T00:06:12;12.80;62.46
75985;DHT22;65033;44.660;37.758;2023-11-19T00:07:15;12.87;62.13
75985;DHT22;65033;44.660;37.758;2023-11-19T00:08:20;12.88;62.56
75985;DHT22;65033;44.660;37.758;2023-11-19T00:09:23;12.92;63.35
75985;DHT22;65033;44.660;37.758;2023-11-19T00:10:30;12.95;63.27
75985;DHT22;65033;44.660;37.758;2023-11-19T00:11:34;12.93;63.27
75985;DHT22;65033;44.660;37.758;2023-11-19T00:12:38;12.90;64.34
75985;DHT22;65033;44.660;37.758;2023-11-19T00:13:41;12.91;63.60
75985;DHT22;65033;44.660;37.758;2023-11-19T00:14:45;12.90;65.04
75985;DHT22;65033;44.660;37.758;2023-11-19T00:15:48;12.89;64.27
75985;DHT22;65033;44.660;37.758;2023-11-19T00:16:51;12.90;64.04
75985;DHT22;65033;44.660;37.758;2023-11-19T00:17:58;12.88;65.42
75985;DHT22;65033;44.660;37.758;2023-11-19T00:19:03;12.89;64.80
75985;DHT22;65033;44.660;37.758;2023-11-19T00:20:08;12.91;65.31
75985;DHT22;65033;44.660;37.758;2023-11-19T00:21:11;12.90;65.01
75985;DHT22;65033;44.660;37.758;2023-11-19T00:22:15;12.91;64.80
75985;DHT22;65033;44.660;37.758;2023-11-19T00:23:18;12.88;65.73
75985;DHT22;65033;44.660;37.758;2023-11-19T00:24:21;12.85;65.51
75985;DHT22;65033;44.660;37.758;2023-11-19T00:25:25;12.84;65.13
75985;DHT22;65033;44.660;37.758;2023-11-19T00:26:29;12.81;65.42
75985;DHT22;65033;44.660;37.758;2023-11-19T00:27:33;12.74;66.03
75985;DHT22;65033;44.660;37.758;2023-11-19T00:28:36;12.70;66.11
75985;DHT22;65033;44.660;37.758;2023-11-19T00:29:41;12.66;66.14
75985;DHT22;65033;44.660;37.758;2023-11-19T00:30:45;12.64;66.27
75985;DHT22;65033;44.660;37.758;2023-11-19T00:31:48;12.62;66.11
75985;DHT22;65033;44.660;37.758;2023-11-19T00:32:53;12.60;65.87
75985;DHT22;65033;44.660;37.758;2023-11-19T00:33:57;12.63;66.40
75985;DHT22;65033;44.660;37.758;2023-11-19T00:35:01;12.65;66.27
75985;DHT22;65033;44.660;37.758;2023-11-19T00:36:05;12.67;66.11
75985;DHT22;65033;44.660;37.758;2023-11-19T00:37:08;12.67;65.90
75985;DHT22;65033;44.660;37.758;2023-11-19T00:38:11;12.65;66.40
75985;DHT22;65033;44.660;37.758;2023-11-19T00:39:15;12.59;67.71
75985;DHT22;65033;44.660;37.758;2023-11-19T00:40:20;12.50;68.08
75985;DHT22;65033;44.660;37.758;2023-11-19T00:41:26;12.44;68.49
75985;DHT22;65033;44.660;37.758;2023-11-19T00:42:30;12.43;68.91
75985;DHT22;65033;44.660;37.758;2023-11-19T00:43:34;12.44;68.38
75985;DHT22;65033;44.660;37.758;2023-11-19T00:44:37;12.46;67.14
75985;DHT22;65033;44.660;37.758;2023-11-19T00:45:41;12.45;68.30
75985;DHT22;65033;44.660;37.758;2023-11-19T00:46:44;12.44;67.64
75985;DHT22;65033;44.660;37.758;2023-11-19T00:47:48;12.42;68.27
75985;DHT22;65033;44.660;37.758;2023-11-19T00:48:51;12.41;68.40
75985;DHT22;65033;44.660;37.758;2023-11-19T00:49:56;12.40;68.53
75985;DHT22;65033;44.660;37.758;2023-11-19T00:51:00;12.43;69.32
75985;DHT22;65033;44.660;37.758;2023-11-19T00:52:03;12.46;68.86
75985;DHT22;65033;44.660;37.758;2023-11-19T00:53:08;12.47;68.70
75985;DHT22;65033;44.660;37.758;2023-11-19T00:54:11;12.48;68.79
75985;DHT22;65033;44.660;37.758;2023-11-19T00:55:14;12.50;69.04
75985;DHT22;65033;44.660;37.758;2023-11-19T00:56:18;12.49;68.94
75985;DHT22;65033;44.660;37.758;2023-11-19T00:57:22;12.49;69.10
75985;DHT22;65033;44.660;37.758;2023-11-19T00:58:29;12.47;69.10
75985;DHT22;65033;44.660;37.758;2023-11-19T00:59:32;12.47;68.42
75985;DHT22;65033;44.660;37.758;2023-11-19T01:00:36;12.47;68.45
75985;DHT22;65033;44.660;37.758;2023-11-19T01:01:40;12.46;68.51
75985;DHT22;65033;44.660;37.758;2023-11-19T01:02:44;12.45;68.42
75985;DHT22;65033;44.660;37.758;2023-11-19T01:03:47;12.45;68.27
75985;DHT22;65033;44.660;37.758;2023-11-19T01:04:51;12.42;68.40
75985;DHT22;65033;44.660;37.758;2023-11-19T01:05:55;12.42;68.47
75985;DHT22;65033;44.660;37.758;2023-11-19T01:06:59;12.42;68.17
75985;DHT22;65033;44.660;37.758;2023-11-19T01:08:03;12.38;68.36
75985;DHT22;65033;44.660;37.758;2023-11-19T01:09:08;12.36;67.75
75985;DHT22;65033;44.660;37.758;2023-11-19T01:10:12;12.35;67.73
75985;DHT22;65033;44.660;37.758;2023-11-19T01:11:20;12.32;67.12
75985;DHT22;65033;44.660;37.758;2023-11-19T01:12:24;12.28;68.07
75985;DHT22;65033;44.660;37.758;2023-11-19T01:13:29;12.21;68.29
75985;DHT22;65033;44.660;37.758;2023-11-19T01:14:32;12.11;69.19
75985;DHT22;65033;44.660;37.758;2023-11-19T01:15:35;11.98;70.21
75985;DHT22;65033;44.660;37.758;2023-11-19T01:16:39;11.96;70.35
75985;DHT22;65033;44.660;37.758;2023-11-19T01:17:42;11.96;70.39
75985;DHT22;65033;44.660;37.758;2023-11-19T01:18:49;11.96;70.77
75985;DHT22;65033;44.660;37.758;2023-11-19T01:19:53;11.99;70.92
75985;DHT22;65033;44.660;37.758;2023-11-19T01:20:56;11.99;70.11
75985;DHT22;65033;44.660;37.758;2023-11-19T01:21:59;12.00;70.66
75985;DHT22;65033;44.660;37.758;2023-11-19T01:23:03;12.02;70.75
75985;DHT22;65033;44.660;37.758;2023-11-19T01:24:07;12.01;70.93
75985;DHT22;65033;44.660;37.758;2023-11-19T01:25:13;12.03;70.75
75985;DHT22;65033;44.660;37.758;2023-11-19T01:26:16;12.03;70.49
75985;DHT22;65033;44.660;37.758;2023-11-19T01:27:20;12.04;71.04
75985;DHT22;65033;44.660;37.758;2023-11-19T01:28:24;12.05;70.99
75985;DHT22;65033;44.660;37.758;2023-11-19T01:29:28;12.06;70.94
75985;DHT22;65033;44.660;37.758;2023-11-19T01:30:31;12.10;70.81
75985;DHT22;65033;44.660;37.758;2023-11-19T01:31:35;12.12;71.07
75985;DHT22;65033;44.660;37.758;2023-11-19T01:32:38;12.15;71.00
75985;DHT22;65033;44.660;37.758;2023-11-19T01:33:41;12.15;70.68
75985;DHT22;65033;44.660;37.758;2023-11-19T01:34:45;12.15;69.71
75985;DHT22;65033;44.660;37.758;2023-11-19T01:35:48;12.13;69.87
75985;DHT22;65033;44.660;37.758;2023-11-19T01:36:51;12.14;70.56
75985;DHT22;65033;44.660;37.758;2023-11-19T01:37:55;12.11;70.27
75985;DHT22;65033;44.660;37.758;2023-11-19T01:38:59;12.12;70.67
75985;DHT22;65033;44.660;37.758;2023-11-19T01:40:02;12.11;70.55
75985;DHT22;65033;44.660;37.758;2023-11-19T01:41:08;12.10;70.06
75985;DHT22;65033;44.660;37.758;2023-11-19T01:42:11;12.05;69.61
75985;DHT22;65033;44.660;37.758;2023-11-19T01:43:33;12.05;70.07
75985;DHT22;65033;44.660;37.758;2023-11-19T01:44:39;12.04;69.79
75985;DHT22;65033;44.660;37.758;2023-11-19T01:45:42;12.01;69.85
75985;DHT22;65033;44.660;37.758;2023-11-19T01:46:47;12.01;69.65
75985;DHT22;65033;44.660;37.758;2023-11-19T01:47:52;12.00;69.73
75985;DHT22;65033;44.660;37.758;2023-11-19T01:48:56;11.98;69.62
75985;DHT22;65033;44.660;37.758;2023-11-19T01:50:00;11.98;69.61
75985;DHT22;65033;44.660;37.758;2023-11-19T01:51:05;11.94;69.16
75985;DHT22;65033;44.660;37.758;2023-11-19T01:52:09;11.90;68.25
75985;DHT22;65033;44.660;37.758;2023-11-19T01:53:13;11.85;68.51
75985;DHT22;65033;44.660;37.758;2023-11-19T01:54:17;11.78;68.50
75985;DHT22;65033;44.660;37.758;2023-11-19T01:55:21;11.75;69.03
75985;DHT22;65033;44.660;37.758;2023-11-19T01:56:26;11.72;69.53
75985;DHT22;65033;44.660;37.758;2023-11-19T01:57:30;11.68;69.64
75985;DHT22;65033;44.660;37.758;2023-11-19T01:58:34;11.66;70.77
75985;DHT22;65033;44.660;37.758;2023-11-19T01:59:39;11.64;69.81
75985;DHT22;65033;44.660;37.758;2023-11-19T02:00:44;11.63;69.49
75985;DHT22;65033;44.660;37.758;2023-11-19T02:01:49;11.62;69.61
75985;DHT22;65033;44.660;37.758;2023-11-19T02:03:02;11.59;69.40
75985;DHT22;65033;44.660;37.758;2023-11-19T02:04:07;11.56;69.21
75985;DHT22;65033;44.660;37.758;2023-11-19T02:05:12;11.55;69.52
75985;DHT22;65033;44.660;37.758;2023-11-19T02:06:19;11.55;69.66
75985;DHT22;65033;44.660;37.758;2023-11-19T02:07:24;11.52;70.10
75985;DHT22;65033;44.660;37.758;2023-11-19T02:08:29;11.51;69.93
75985;DHT22;65033;44.660;37.758;2023-11-19T02:09:33;11.47;70.23
75985;DHT22;65033;44.660;37.758;2023-11-19T02:10:37;11.45;70.52
75985;DHT22;65033;44.660;37.758;2023-11-19T02:11:41;11.42;70.41
75985;DHT22;65033;44.660;37.758;2023-11-19T02:12:45;11.41;70.45
75985;DHT22;65033;44.660;37.758;2023-11-19T02:13:49;11.39;70.26
75985;DHT22;65033;44.660;37.758;2023-11-19T02:14:54;11.36;70.29
75985;DHT22;65033;44.660;37.758;2023-11-19T02:15:58;11.36;70.26
75985;DHT22;65033;44.660;37.758;2023-11-19T02:17:02;11.31;70.52
75985;DHT22;65033;44.660;37.758;2023-11-19T02:18:19;11.32;71.16
75985;DHT22;65033;44.660;37.758;2023-11-19T02:19:23;11.32;71.52
75985;DHT22;65033;44.660;37.758;2023-11-19T02:20:26;11.30;71.62
75985;DHT22;65033;44.660;37.758;2023-11-19T02:21:30;11.29;71.26
75985;DHT22;65033;44.660;37.758;2023-11-19T02:22:36;11.28;71.13
75985;DHT22;65033;44.660;37.758;2023-11-19T02:23:40;11.28;71.32
75985;DHT22;65033;44.660;37.758;2023-11-19T02:24:45;11.29;71.08
75985;DHT22;65033;44.660;37.758;2023-11-19T02:26:02;11.30;71.09
75985;DHT22;65033;44.660;37.758;2023-11-19T02:27:10;11.31;70.65
75985;DHT22;65033;44.660;37.758;2023-11-19T02:28:15;11.31;70.91
75985;DHT22;65033;44.660;37.758;2023-11-19T02:29:19;11.33;70.96
75985;DHT22;65033;44.660;37.758;2023-11-19T02:30:23;11.36;70.55
75985;DHT22;65033;44.660;37.758;2023-11-19T02:31:31;11.36;70.55
75985;DHT22;65033;44.660;37.758;2023-11-19T02:32:35;11.37;70.34
75985;DHT22;65033;44.660;37.758;2023-11-19T02:33:39;11.37;70.52
75985;DHT22;65033;44.660;37.758;2023-11-19T02:34:43;11.39;70.54
75985;DHT22;65033;44.660;37.758;2023-11-19T02:35:46;11.38;70.53
75985;DHT22;65033;44.660;37.758;2023-11-19T02:36:50;11.38;70.52
75985;DHT22;65033;44.660;37.758;2023-11-19T02:37:54;11.39;70.27
75985;DHT22;65033;44.660;37.758;2023-11-19T02:38:58;11.41;70.21
75985;DHT22;65033;44.660;37.758;2023-11-19T02:40:02;11.42;70.52
75985;DHT22;65033;44.660;37.758;2023-11-19T02:41:06;11.44;70.29
75985;DHT22;65033;44.660;37.758;2023-11-19T02:42:10;11.46;70.19
75985;DHT22;65033;44.660;37.758;2023-11-19T02:43:15;11.46;70.55
75985;DHT22;65033;44.660;37.758;2023-11-19T02:44:19;11.45;69.47
75985;DHT22;65033;44.660;37.758;2023-11-19T02:45:23;11.44;69.73
75985;DHT22;65033;44.660;37.758;2023-11-19T02:46:27;11.42;69.33
75985;DHT22;65033;44.660;37.758;2023-11-19T02:47:30;11.41;69.74
75985;DHT22;65033;44.660;37.758;2023-11-19T02:48:34;11.38;69.36
75985;DHT22;65033;44.660;37.758;2023-11-19T02:49:41;11.39;69.75
75985;DHT22;65033;44.660;37.758;2023-11-19T02:50:46;11.37;69.44
75985;DHT22;65033;44.660;37.758;2023-11-19T02:51:51;11.37;69.74
75985;DHT22;65033;44.660;37.758;2023-11-19T02:52:55;11.38;69.45
75985;DHT22;65033;44.660;37.758;2023-11-19T02:54:02;11.39;69.67
75985;DHT22;65033;44.660;37.758;2023-11-19T02:55:07;11.39;69.15
75985;DHT22;65033;44.660;37.758;2023-11-19T02:56:15;11.41;69.32
75985;DHT22;65033;44.660;37.758;2023-11-19T02:57:23;11.42;69.60
75985;DHT22;65033;44.660;37.758;2023-11-19T02:58:29;11.42;69.45
75985;DHT22;65033;44.660;37.758;2023-11-19T02:59:32;11.42;69.00
75985;DHT22;65033;44.660;37.758;2023-11-19T03:00:43;11.41;68.77
75985;DHT22;65033;44.660;37.758;2023-11-19T03:01:55;11.43;68.94
75985;DHT22;65033;44.660;37.758;2023-11-19T03:02:59;11.44;68.65
75985;DHT22;65033;44.660;37.758;2023-11-19T03:04:08;11.45;68.63
75985;DHT22;65033;44.660;37.758;2023-11-19T03:05:15;11.45;68.51
75985;DHT22;65033;44.660;37.758;2023-11-19T03:06:19;11.46;68.45
75985;DHT22;65033;44.660;37.758;2023-11-19T03:07:24;11.44;68.68
75985;DHT22;65033;44.660;37.758;2023-11-19T03:08:28;11.44;68.70
75985;DHT22;65033;44.660;37.758;2023-11-19T03:09:31;11.42;68.85
75985;DHT22;65033;44.660;37.758;2023-11-19T03:10:35;11.42;68.21
75985;DHT22;65033;44.660;37.758;2023-11-19T03:11:38;11.41;68.33
75985;DHT22;65033;44.660;37.758;2023-11-19T03:12:43;11.41;68.35
75985;DHT22;65033;44.660;37.758;2023-11-19T03:13:48;11.39;68.43
75985;DHT22;65033;44.660;37.758;2023-11-19T03:14:51;11.39;68.31
75985;DHT22;65033;44.660;37.758;2023-11-19T03:15:54;11.37;68.65
75985;DHT22;65033;44.660;37.758;2023-11-19T03:16:58;11.36;68.47
75985;DHT22;65033;44.660;37.758;2023-11-19T03:18:01;11.33;68.68
75985;DHT22;65033;44.660;37.758;2023-11-19T03:19:05;11.32;69.28
75985;DHT22;65033;44.660;37.758;2023-11-19T03:20:10;11.29;69.22
75985;DHT22;65033;44.660;37.758;2023-11-19T03:21:14;11.27;69.20
75985;DHT22;65033;44.660;37.758;2023-11-19T03:22:17;11.27;69.08
75985;DHT22;65033;44.660;37.758;2023-11-19T03:23:20;11.27;69.07
75985;DHT22;65033;44.660;37.758;2023-11-19T03:24:26;11.24;69.15
75985;DHT22;65033;44.660;37.758;2023-11-19T03:25:30;11.24;68.78
75985;DHT22;65033;44.660;37.758;2023-11-19T03:26:36;11.23;69.10
75985;DHT22;65033;44.660;37.758;2023-11-19T03:27:40;11.23;69.04
75985;DHT22;65033;44.660;37.758;2023-11-19T03:28:48;11.22;69.10
75985;DHT22;65033;44.660;37.758;2023-11-19T03:29:53;11.24;69.32
75985;DHT22;65033;44.660;37.758;2023-11-19T03:30:56;11.22;68.95
75985;DHT22;65033;44.660;37.758;2023-11-19T03:32:00;11.22;69.13
75985;DHT22;65033;44.660;37.758;2023-11-19T03:33:03;11.19;69.00
75985;DHT22;65033;44.660;37.758;2023-11-19T03:34:07;11.18;68.83
75985;DHT22;65033;44.660;37.758;2023-11-19T03:35:10;11.20;69.07
75985;DHT22;65033;44.660;37.758;2023-11-19T03:36:15;11.20;68.84
75985;DHT22;65033;44.660;37.758;2023-11-19T03:37:18;11.20;68.87
75985;DHT22;65033;44.660;37.758;2023-11-19T03:38:23;11.23;68.63
75985;DHT22;65033;44.660;37.758;2023-11-19T03:39:28;11.24;69.04
75985;DHT22;65033;44.660;37.758;2023-11-19T03:40:32;11.25;68.85
75985;DHT22;65033;44.660;37.758;2023-11-19T03:41:36;11.25;68.78
75985;DHT22;65033;44.660;37.758;2023-11-19T03:42:42;11.22;68.47
75985;DHT22;65033;44.660;37.758;2023-11-19T03:43:48;11.22;68.96
75985;DHT22;65033;44.660;37.758;2023-11-19T03:44:52;11.22;68.33
75985;DHT22;65033;44.660;37.758;2023-11-19T03:45:56;11.23;68.90
75985;DHT22;65033;44.660;37.758;2023-11-19T03:47:00;11.24;68.80
75985;DHT22;65033;44.660;37.758;2023-11-19T03:48:04;11.23;68.90
75985;DHT22;65033;44.660;37.758;2023-11-19T03:49:08;11.25;69.04
75985;DHT22;65033;44.660;37.758;2023-11-19T03:50:11;11.26;69.25
75985;DHT22;65033;44.660;37.758;2023-11-19T03:51:15;11.26;69.36
75985;DHT22;65033;44.660;37.758;2023-11-19T03:52:19;11.25;69.42
75985;DHT22;65033;44.660;37.758;2023-11-19T03:53:23;11.23;70.46
75985;DHT22;65033;44.660;37.758;2023-11-19T03:54:27;11.22;71.17
75985;DHT22;65033;44.660;37.758;2023-11-19T03:55:31;11.19;70.66
75985;DHT22;65033;44.660;37.758;2023-11-19T03:56:36;11.15;71.03
75985;DHT22;65033;44.660;37.758;2023-11-19T03:57:39;11.12;70.74
75985;DHT22;65033;44.660;37.758;2023-11-19T03:58:43;11.09;71.31
75985;DHT22;65033;44.660;37.758;2023-11-19T03:59:48;11.07;71.71
75985;DHT22;65033;44.660;37.758;2023-11-19T04:00:52;11.03;71.98
75985;DHT22;65033;44.660;37.758;2023-11-19T04:01:57;10.98;71.61
75985;DHT22;65033;44.660;37.758;2023-11-19T04:03:04;10.96;72.51
75985;DHT22;65033;44.660;37.758;2023-11-19T04:04:07;10.92;72.01
75985;DHT22;65033;44.660;37.758;2023-11-19T04:05:11;10.90;72.31
75985;DHT22;65033;44.660;37.758;2023-11-19T04:06:15;10.87;72.68
75985;DHT22;65033;44.660;37.758;2023-11-19T04:07:18;10.87;72.64
75985;DHT22;65033;44.660;37.758;2023-11-19T04:08:22;10.85;72.26
75985;DHT22;65033;44.660;37.758;2023-11-19T04:09:26;10.84;72.42
75985;DHT22;65033;44.660;37.758;2023-11-19T04:10:32;10.82;73.16
75985;DHT22;65033;44.660;37.758;2023-11-19T04:11:36;10.83;72.96
75985;DHT22;65033;44.660;37.758;2023-11-19T04:12:39;10.80;72.56
75985;DHT22;65033;44.660;37.758;2023-11-19T04:13:43;10.79;73.09
75985;DHT22;65033;44.660;37.758;2023-11-19T04:14:48;10.80;73.41
75985;DHT22;65033;44.660;37.758;2023-11-19T04:16:02;10.79;73.13
75985;DHT22;65033;44.660;37.758;2023-11-19T04:17:06;10.79;72.73
75985;DHT22;65033;44.660;37.758;2023-11-19T04:18:10;10.77;73.09
75985;DHT22;65033;44.660;37.758;2023-11-19T04:19:13;10.77;72.32
75985;DHT22;65033;44.660;37.758;2023-11-19T04:20:17;10.78;73.07
75985;DHT22;65033;44.660;37.758;2023-11-19T04:21:22;10.79;73.01
75985;DHT22;65033;44.660;37.758;2023-11-19T04:22:27;10.78;73.65
75985;DHT22;65033;44.660;37.758;2023-11-19T04:23:31;11.56;88.73
75985;DHT22;65033;44.660;37.758;2023-11-19T04:24:34;11.89;74.92
75985;DHT22;65033;44.660;37.758;2023-11-19T04:25:41;11.83;69.44
75985;DHT22;65033;44.660;37.758;2023-11-19T04:26:45;11.75;69.52
75985;DHT22;65033;44.660;37.758;2023-11-19T04:27:49;11.64;69.47
75985;DHT22;65033;44.660;37.758;2023-11-19T04:28:54;11.55;69.53
75985;DHT22;65033;44.660;37.758;2023-11-19T04:29:59;11.43;70.06
75985;DHT22;65033;44.660;37.758;2023-11-19T04:31:07;11.34;70.58
75985;DHT22;65033;44.660;37.758;2023-11-19T04:32:12;11.27;70.44
75985;DHT22;65033;44.660;37.758;2023-11-19T04:33:16;11.23;70.81
75985;DHT22;65033;44.660;37.758;2023-11-19T04:34:19;11.18;71.49
75985;DHT22;65033;44.660;37.758;2023-11-19T04:35:23;11.17;71.04
75985;DHT22;65033;44.660;37.758;2023-11-19T04:36:29;11.16;71.84
75985;DHT22;65033;44.660;37.758;2023-11-19T04:37:32;11.12;71.52
75985;DHT22;65033;44.660;37.758;2023-11-19T04:38:36;11.13;71.15
75985;DHT22;65033;44.660;37.758;2023-11-19T04:39:41;11.12;71.31
75985;DHT22;65033;44.660;37.758;2023-11-19T04:40:47;11.10;71.06
75985;DHT22;65033;44.660;37.758;2023-11-19T04:41:51;11.10;71.55
75985;DHT22;65033;44.660;37.758;2023-11-19T04:42:56;11.11;71.77
75985;DHT22;65033;44.660;37.758;2023-11-19T04:44:00;11.10;72.04
75985;DHT22;65033;44.660;37.758;2023-11-19T04:45:06;11.10;71.90
75985;DHT22;65033;44.660;37.758;2023-11-19T04:46:10;11.12;71.90
75985;DHT22;65033;44.660;37.758;2023-11-19T04:47:14;11.12;71.56
75985;DHT22;65033;44.660;37.758;2023-11-19T04:48:18;11.13;71.64
75985;DHT22;65033;44.660;37.758;2023-11-19T04:49:21;11.15;71.22
75985;DHT22;65033;44.660;37.758;2023-11-19T04:50:25;11.17;71.25
75985;DHT22;65033;44.660;37.758;2023-11-19T04:51:30;11.19;71.29
75985;DHT22;65033;44.660;37.758;2023-11-19T04:52:34;11.22;71.33
75985;DHT22;65033;44.660;37.758;2023-11-19T04:53:40;11.22;70.92
75985;DHT22;65033;44.660;37.758;2023-11-19T04:54:44;11.25;70.78
75985;DHT22;65033;44.660;37.758;2023-11-19T04:55:47;11.25;71.16
75985;DHT22;65033;44.660;37.758;2023-11-19T04:56:51;11.27;71.32
75985;DHT22;65033;44.660;37.758;2023-11-19T04:57:55;11.30;70.88
75985;DHT22;65033;44.660;37.758;2023-11-19T04:58:58;11.33;70.58
75985;DHT22;65033;44.660;37.758;2023-11-19T05:00:02;11.37;70.39
75985;DHT22;65033;44.660;37.758;2023-11-19T05:01:20;11.39;70.59
75985;DHT22;65033;44.660;37.758;2023-11-19T05:02:24;11.38;70.11
75985;DHT22;65033;44.660;37.758;2023-11-19T05:03:28;11.39;70.10
75985;DHT22;65033;44.660;37.758;2023-11-19T05:04:32;11.38;69.74
75985;DHT22;65033;44.660;37.758;2023-11-19T05:05:36;11.41;70.38
75985;DHT22;65033;44.660;37.758;2023-11-19T05:06:39;11.41;70.09
75985;DHT22;65033;44.660;37.758;2023-11-19T05:07:43;11.41;69.97
75985;DHT22;65033;44.660;37.758;2023-11-19T05:08:47;11.40;70.41
75985;DHT22;65033;44.660;37.758;2023-11-19T05:09:51;11.41;69.84
75985;DHT22;65033;44.660;37.758;2023-11-19T05:10:54;11.40;70.07
75985;DHT22;65033;44.660;37.758;2023-11-19T05:11:59;11.37;70.23
75985;DHT22;65033;44.660;37.758;2023-11-19T05:13:03;11.39;70.05
75985;DHT22;65033;44.660;37.758;2023-11-19T05:14:06;11.39;69.52
75985;DHT22;65033;44.660;37.758;2023-11-19T05:15:10;11.71;84.01
75985;DHT22;65033;44.660;37.758;2023-11-19T05:16:15;12.63;91.66
75985;DHT22;65033;44.660;37.758;2023-11-19T05:17:20;12.97;77.78
75985;DHT22;65033;44.660;37.758;2023-11-19T05:18:24;12.85;65.57
75985;DHT22;65033;44.660;37.758;2023-11-19T05:19:28;12.73;65.59
75985;DHT22;65033;44.660;37.758;2023-11-19T05:20:32;12.56;66.12
75985;DHT22;65033;44.660;37.758;2023-11-19T05:21:35;12.46;65.72
75985;DHT22;65033;44.660;37.758;2023-11-19T05:22:41;12.35;66.26
75985;DHT22;65033;44.660;37.758;2023-11-19T05:23:45;12.28;67.01
75985;DHT22;65033;44.660;37.758;2023-11-19T05:24:50;12.22;67.41
75985;DHT22;65033;44.660;37.758;2023-11-19T05:25:53;12.18;67.43
75985;DHT22;65033;44.660;37.758;2023-11-19T05:26:57;12.12;68.03
75985;DHT22;65033;44.660;37.758;2023-11-19T05:28:01;12.05;68.19
75985;DHT22;65033;44.660;37.758;2023-11-19T05:29:05;11.99;68.47
75985;DHT22;65033;44.660;37.758;2023-11-19T05:30:09;11.93;68.97
75985;DHT22;65033;44.660;37.758;2023-11-19T05:31:16;11.74;69.07
75985;DHT22;65033;44.660;37.758;2023-11-19T05:32:22;11.62;70.18
75985;DHT22;65033;44.660;37.758;2023-11-19T05:33:25;11.57;71.06
75985;DHT22;65033;44.660;37.758;2023-11-19T05:34:29;11.51;71.51
75985;DHT22;65033;44.660;37.758;2023-11-19T05:35:34;11.51;71.20
75985;DHT22;65033;44.660;37.758;2023-11-19T05:36:38;11.53;71.41
75985;DHT22;65033;44.660;37.758;2023-11-19T05:37:42;11.54;71.48
75985;DHT22;65033;44.660;37.758;2023-11-19T05:38:46;11.55;71.58
75985;DHT22;65033;44.660;37.758;2023-11-19T05:39:50;11.52;71.74
75985;DHT22;65033;44.660;37.758;2023-11-19T05:40:53;11.51;72.14
75985;DHT22;65033;44.660;37.758;2023-11-19T05:41:57;11.53;72.91
75985;DHT22;65033;44.660;37.758;2023-11-19T05:43:01;11.53;72.90
75985;DHT22;65033;44.660;37.758;2023-11-19T05:44:04;11.56;72.51
75985;DHT22;65033;44.660;37.758;2023-11-19T05:45:09;11.53;71.87
75985;DHT22;65033;44.660;37.758;2023-11-19T05:46:13;11.54;72.25
75985;DHT22;65033;44.660;37.758;2023-11-19T05:47:21;11.54;71.99
75985;DHT22;65033;44.660;37.758;2023-11-19T05:48:26;11.57;72.77
75985;DHT22;65033;44.660;37.758;2023-11-19T05:49:29;11.57;73.08
75985;DHT22;65033;44.660;37.758;2023-11-19T05:50:33;11.52;73.12
75985;DHT22;65033;44.660;37.758;2023-11-19T05:51:37;11.44;73.33
75985;DHT22;65033;44.660;37.758;2023-11-19T05:52:41;11.44;73.42
75985;DHT22;65033;44.660;37.758;2023-11-19T05:53:45;11.48;73.48
75985;DHT22;65033;44.660;37.758;2023-11-19T05:54:53;11.45;72.96
75985;DHT22;65033;44.660;37.758;2023-11-19T05:55:56;11.42;72.90
75985;DHT22;65033;44.660;37.758;2023-11-19T05:57:00;11.40;73.73
75985;DHT22;65033;44.660;37.758;2023-11-19T05:58:03;11.34;74.45
75985;DHT22;65033;44.660;37.758;2023-11-19T05:59:09;11.31;74.84
75985;DHT22;65033;44.660;37.758;2023-11-19T06:00:18;11.29;75.41
75985;DHT22;65033;44.660;37.758;2023-11-19T06:01:22;11.25;74.68
75985;DHT22;65033;44.660;37.758;2023-11-19T06:02:27;11.27;74.63
75985;DHT22;65033;44.660;37.758;2023-11-19T06:03:31;11.27;74.98
75985;DHT22;65033;44.660;37.758;2023-11-19T06:04:34;11.26;75.67
75985;DHT22;65033;44.660;37.758;2023-11-19T06:05:37;11.28;75.54
75985;DHT22;65033;44.660;37.758;2023-11-19T06:06:41;11.28;76.31
75985;DHT22;65033;44.660;37.758;2023-11-19T06:07:45;11.31;75.87
75985;DHT22;65033;44.660;37.758;2023-11-19T06:08:49;11.33;75.71
75985;DHT22;65033;44.660;37.758;2023-11-19T06:09:53;11.32;76.05
75985;DHT22;65033;44.660;37.758;2023-11-19T06:10:57;11.32;75.69
75985;DHT22;65033;44.660;37.758;2023-11-19T06:12:00;12.15;90.34
75985;DHT22;65033;44.660;37.758;2023-11-19T06:13:05;12.92;88.98
75985;DHT22;65033;44.660;37.758;2023-11-19T06:14:08;13.32;78.37
75985;DHT22;65033;44.660;37.758;2023-11-19T06:15:12;13.03;69.63
75985;DHT22;65033;44.660;37.758;2023-11-19T06:16:16;12.86;70.04
75985;DHT22;65033;44.660;37.758;2023-11-19T06:17:19;12.73;70.12
75985;DHT22;65033;44.660;37.758;2023-11-19T06:18:24;12.48;71.50
75985;DHT22;65033;44.660;37.758;2023-11-19T06:19:28;12.44;71.86
75985;DHT22;65033;44.660;37.758;2023-11-19T06:20:33;12.32;71.39
75985;DHT22;65033;44.660;37.758;2023-11-19T06:21:39;12.25;71.78
75985;DHT22;65033;44.660;37.758;2023-11-19T06:22:43;12.18;72.61
75985;DHT22;65033;44.660;37.758;2023-11-19T06:23:48;12.15;72.91
75985;DHT22;65033;44.660;37.758;2023-11-19T06:24:54;12.13;73.18
75985;DHT22;65033;44.660;37.758;2023-11-19T06:25:58;12.11;73.16
75985;DHT22;65033;44.660;37.758;2023-11-19T06:27:02;12.02;73.64
75985;DHT22;65033;44.660;37.758;2023-11-19T06:28:06;11.97;73.67
75985;DHT22;65033;44.660;37.758;2023-11-19T06:29:10;11.90;74.37
75985;DHT22;65033;44.660;37.758;2023-11-19T06:30:14;11.81;74.92
75985;DHT22;65033;44.660;37.758;2023-11-19T06:31:18;11.67;75.48
75985;DHT22;65033;44.660;37.758;2023-11-19T06:32:22;11.57;76.39
75985;DHT22;65033;44.660;37.758;2023-11-19T06:33:27;11.51;76.65
75985;DHT22;65033;44.660;37.758;2023-11-19T06:34:30;11.47;77.03
75985;DHT22;65033;44.660;37.758;2023-11-19T06:35:33;11.48;77.28
75985;DHT22;65033;44.660;37.758;2023-11-19T06:36:39;11.49;77.60
75985;DHT22;65033;44.660;37.758;2023-11-19T06:37:43;11.54;77.48
75985;DHT22;65033;44.660;37.758;2023-11-19T06:38:48;11.58;77.47
75985;DHT22;65033;44.660;37.758;2023-11-19T06:39:56;11.60;76.94
75985;DHT22;65033;44.660;37.758;2023-11-19T06:41:00;11.54;77.77